Costa Luminosa — ICGU — position and weather

sailwx.info

Track history (hours):
 
Tides and Currents Weather Stations Pressure Air Temp Water Temp Dewpoint Dewpoint Depression Visibility Wind Speed Wind Dir Waves Ship Positions

Costa Luminosa

Last reported at 2015-Apr-26 22:23 UTC. Time now 2015-Apr-28 06:51 UTC.
Position N 42°08' E 006°56'.

Length 292 m; draft 8 m.

Type: Ship. MMSI: 247257900.

Date/timePositionNaut miles runAvg speedWind from/ knotsBaromVisibWave heightAir tempDewpointWater temp
2015-Apr-26 22:23N 42°08' E 006°56'6112.5
2015-Apr-26 17:29N 42°56' E 006°06'1111.6
2015-Apr-26 16:33N 43°05' E 005°57'3 2.7
2015-Apr-26 15:32N 43°06' E 005°54'0 0.0
2015-Apr-26 14:32N 43°06' E 005°54'0 0.0
2015-Apr-26 13:32N 43°06' E 005°54'0 0.0
2015-Apr-26 12:32N 43°06' E 005°54'0 0.0
2015-Apr-26 11:32N 43°06' E 005°54'0 0.0
2015-Apr-26 10:31N 43°06' E 005°54'0 0.0
2015-Apr-26 09:32N 43°06' E 005°54'0 0.0
2015-Apr-26 08:32N 43°06' E 005°54'0 0.0
2015-Apr-26 07:32N 43°06' E 005°54'0 0.0
2015-Apr-26 06:32N 43°06' E 005°54'0 0.0
2015-Apr-26 05:32N 43°06' E 005°54'5 5.5
2015-Apr-26 04:32N 43°03' E 005°60'1211.8
2015-Apr-26 03:33N 42°56' E 006°12'2813.5
2015-Apr-26 01:31N 42°57' E 006°50'1813.0
2015-Apr-26 00:08N 42°58' E 007°14'813.1
2015-Apr-25 23:30N 42°58' E 007°26'1213.1
2015-Apr-25 22:33N 42°59' E 007°43'7712.4
2015-Apr-25 16:22N 44°07' E 008°31'1012.0
2015-Apr-25 15:33N 44°17' E 008°33'3 2.9
2015-Apr-25 14:31N 44°19' E 008°29'0 0.0
2015-Apr-25 13:31N 44°19' E 008°29'0 0.0
2015-Apr-25 12:31N 44°19' E 008°29'0 0.0
2015-Apr-25 11:31N 44°19' E 008°29'0 0.0
2015-Apr-25 10:31N 44°19' E 008°29'0 0.0
2015-Apr-25 09:31N 44°19' E 008°29'0 0.0
2015-Apr-25 08:28N 44°19' E 008°29'0 0.0
2015-Apr-25 07:31N 44°19' E 008°29'0 0.0
2015-Apr-25 06:33N 44°19' E 008°29'4 3.5
2015-Apr-25 05:33N 44°17' E 008°34'1111.1
2015-Apr-25 04:33N 44°08' E 008°42'1212.2
2015-Apr-25 03:33N 43°58' E 008°33'1111.4
2015-Apr-25 02:33N 43°48' E 008°26'1313.4
2015-Apr-25 01:33N 43°45' E 008°44'1313.2
2015-Apr-25 00:33N 43°42' E 009°02'1312.9
2015-Apr-24 23:33N 43°40' E 009°20'1312.9
2015-Apr-24 22:33N 43°38' E 009°37'1312.9
2015-Apr-24 21:33N 43°32' E 009°53'1312.8
2015-Apr-24 20:33N 43°31' E 010°11'5 5.1
2015-Apr-24 19:31N 43°33' E 010°18'0 0.0
2015-Apr-24 18:31N 43°33' E 010°18'0 0.0
2015-Apr-24 17:31N 43°33' E 010°18'0 0.0
2015-Apr-24 16:31N 43°33' E 010°18'0 0.0
2015-Apr-24 15:31N 43°33' E 010°18'0 0.0
2015-Apr-24 14:31N 43°33' E 010°18'0 0.0
2015-Apr-24 13:31N 43°33' E 010°18'0 0.0
2015-Apr-24 12:31N 43°33' E 010°18'0 0.0
2015-Apr-24 11:31N 43°33' E 010°18'0 0.0
2015-Apr-24 10:31N 43°33' E 010°18'0 0.0
2015-Apr-24 09:31N 43°33' E 010°18'0 0.0
2015-Apr-24 08:31N 43°33' E 010°18'0 0.0
2015-Apr-24 07:31N 43°33' E 010°18'0 0.0
2015-Apr-24 06:31N 43°33' E 010°18'0 0.2
2015-Apr-24 05:33N 43°33' E 010°18'8 8.5
2015-Apr-24 04:33N 43°27' E 010°10'1313.1
2015-Apr-24 03:33N 43°19' E 009°56'1313.5
2015-Apr-24 02:33N 43°15' E 009°38'1413.1
2015-Apr-24 01:29N 43°14' E 009°19'1212.4
2015-Apr-24 00:33N 43°08' E 009°05'1313.5
2015-Apr-23 23:33N 43°02' E 008°49'1413.6
2015-Apr-23 22:33N 42°52' E 008°37'1413.9
2015-Apr-23 21:32N 42°40' E 008°25'1413.5
2015-Apr-23 20:28N 42°29' E 008°14'51 2.7
2015-Apr-23 01:15N 41°44' E 007°41'1114.1
2015-Apr-23 00:26N 41°44' E 007°26'3013.2
2015-Apr-22 22:08N 42°06' E 006°58'1113.8
2015-Apr-22 21:20N 42°15' E 006°49'1613.5
2015-Apr-22 20:08N 42°28' E 006°36'813.6
2015-Apr-22 19:33N 42°34' E 006°30'1613.8
2015-Apr-22 18:23N 42°47' E 006°17'1513.2
2015-Apr-22 17:13N 42°59' E 006°03'812.1
2015-Apr-22 16:33N 43°05' E 005°57'3 2.5
2015-Apr-22 15:31N 43°06' E 005°54'0 0.0
2015-Apr-22 14:31N 43°06' E 005°54'0 0.0
2015-Apr-22 13:31N 43°06' E 005°54'0 0.0
2015-Apr-22 12:31N 43°06' E 005°54'0 0.0
2015-Apr-22 11:31N 43°06' E 005°54'0 0.0
2015-Apr-22 10:31N 43°06' E 005°54'0 0.0
2015-Apr-22 09:31N 43°06' E 005°54'0 0.0
2015-Apr-22 08:31N 43°06' E 005°54'0 0.0
2015-Apr-22 07:31N 43°06' E 005°54'0 0.0
2015-Apr-22 06:31N 43°06' E 005°54'0 0.0
2015-Apr-22 05:33N 43°06' E 005°54'7 7.4
2015-Apr-22 04:33N 43°01' E 006°01'1312.4
2015-Apr-22 03:28N 42°57' E 006°18'1313.8
2015-Apr-22 02:32N 42°57' E 006°35'1414.0
2015-Apr-22 01:32N 42°58' E 006°55'1313.6
2015-Apr-22 00:33N 42°59' E 007°13'1313.1
2015-Apr-21 23:33N 42°59' E 007°31'1313.1
2015-Apr-21 22:33N 42°59' E 007°49'1312.4
2015-Apr-21 21:28N 43°05' E 008°05'1212.7
2015-Apr-21 20:33N 43°16' E 008°10'1313.0
2015-Apr-21 19:34N 43°29' E 008°15'1313.2
2015-Apr-21 18:33N 43°41' E 008°20'1313.4
2015-Apr-21 17:34N 43°54' E 008°26'1513.5
2015-Apr-21 16:27N 44°09' E 008°32'1011.5
2015-Apr-21 15:33N 44°19' E 008°31'1 1.0
2015-Apr-21 14:31N 44°19' E 008°29'0 0.0
2015-Apr-21 13:31N 44°19' E 008°29'0 0.0
2015-Apr-21 12:16N 44°19' E 008°29'0 0.0
2015-Apr-21 11:28N 44°19' E 008°29'0 0.0
2015-Apr-21 10:10N 44°19' E 008°29'0 0.0
2015-Apr-21 09:28N 44°19' E 008°29'0 0.0
2015-Apr-21 08:31N 44°19' E 008°29'0 0.0
2015-Apr-21 07:31N 44°19' E 008°29'0 0.0
2015-Apr-21 06:31N 44°19' E 008°29'6 6.2
2015-Apr-21 05:33N 44°14' E 008°34'1212.2
2015-Apr-21 04:33N 44°02' E 008°37'1312.4
2015-Apr-21 03:33N 43°52' E 008°27'9 9.3
2015-Apr-21 02:33N 43°42' E 008°28'1313.4
2015-Apr-21 01:33N 43°34' E 008°43'1312.6
2015-Apr-21 00:33N 43°34' E 009°00'1313.0
2015-Apr-20 23:33N 43°35' E 009°18'1312.9
2015-Apr-20 22:33N 43°35' E 009°36'1313.0
2015-Apr-20 21:33N 43°33' E 009°54'1312.9
2015-Apr-20 20:34N 43°31' E 010°11'5 4.8
2015-Apr-20 19:31N 43°33' E 010°18'0 0.0
2015-Apr-20 18:31N 43°33' E 010°18'0 0.0
2015-Apr-20 17:31N 43°33' E 010°18'0 0.0
2015-Apr-20 16:31N 43°33' E 010°18'0 0.0
2015-Apr-20 15:28N 43°33' E 010°18'0 0.0
2015-Apr-20 14:31N 43°33' E 010°18'0 0.0
2015-Apr-20 13:31N 43°33' E 010°18'0 0.0
2015-Apr-20 12:33N 43°33' E 010°18'0 0.0
2015-Apr-20 11:33N 43°33' E 010°18'0 0.0
2015-Apr-20 10:33N 43°33' E 010°18'0 0.0
2015-Apr-20 09:33N 43°33' E 010°18'0 0.0
2015-Apr-20 08:33N 43°33' E 010°18'0 0.0
2015-Apr-20 07:33N 43°33' E 010°18'0 0.0
2015-Apr-20 06:33N 43°33' E 010°18'6 6.1
2015-Apr-20 05:33N 43°28' E 010°12'1312.9
2015-Apr-20 04:33N 43°16' E 010°07'1313.0
2015-Apr-20 03:33N 43°04' E 010°02'1313.0
2015-Apr-20 02:33N 42°51' E 009°57'11711.7
2015-Apr-19 16:31N 40°55' E 009°34'2 2.1
2015-Apr-19 15:28N 40°55' E 009°31'0 0.0
2015-Apr-19 14:31N 40°55' E 009°31'0 0.0
2015-Apr-19 13:32N 40°55' E 009°31'0 0.0
2015-Apr-19 12:31N 40°55' E 009°31'0 0.0
2015-Apr-19 11:22N 40°55' E 009°31'0 0.0
2015-Apr-19 10:25N 40°55' E 009°31'0 0.0
2015-Apr-19 09:25N 40°55' E 009°31'0 0.0
2015-Apr-19 08:22N 40°55' E 009°31'0 0.0
2015-Apr-19 07:25N 40°55' E 009°31'0 0.0
2015-Apr-19 06:28N 40°55' E 009°31'0 0.0
2015-Apr-19 05:32N 40°55' E 009°31'135 4.4
2015-Apr-17 22:33N 41°53' E 006°49'1514.6
2015-Apr-17 21:30N 42°08' E 006°46'1313.8
2015-Apr-17 20:33N 42°21' E 006°43'1815.2
2015-Apr-17 19:23N 42°35' E 006°28'2713.9
2015-Apr-17 17:25N 42°57' E 006°05'1112.5
2015-Apr-17 16:33N 43°05' E 005°56'2 1.8
2015-Apr-17 15:31N 43°06' E 005°54'0 0.0
2015-Apr-17 14:31N 43°06' E 005°54'0 0.0
2015-Apr-17 13:31N 43°06' E 005°54'0 0.0
2015-Apr-17 12:31N 43°06' E 005°54'0 0.0
2015-Apr-17 11:31N 43°06' E 005°54'0 0.0
2015-Apr-17 10:31N 43°06' E 005°54'0 0.0
2015-Apr-17 09:31N 43°06' E 005°54'0 0.0
2015-Apr-17 08:31N 43°06' E 005°54'0 0.0
2015-Apr-17 07:31N 43°06' E 005°54'0 0.0
2015-Apr-17 06:31N 43°06' E 005°54'0 0.0
2015-Apr-17 05:34N 43°06' E 005°54'8 7.8
2015-Apr-17 04:31N 43°01' E 006°02'1111.8
2015-Apr-17 03:33N 42°55' E 006°16'1414.6
2015-Apr-17 02:33N 42°55' E 006°35'1413.9
2015-Apr-17 01:33N 42°53' E 006°54'1313.4
2015-Apr-17 00:33N 42°48' E 007°11'1010.3
2015-Apr-16 23:33N 42°56' E 007°21'1413.6
2015-Apr-16 22:33N 43°09' E 007°21'  
Track history (hours):
 
Tides and Currents Weather Stations Pressure Air Temp Water Temp Dewpoint Dewpoint Depression Visibility Wind Speed Wind Dir Waves Ship Positions

Costa Luminosa

Last reported at 2015-Apr-26 22:23 UTC. Time now 2015-Apr-28 06:51 UTC.
Position N 42°08' E 006°56'.

Length 292 m; draft 8 m.

Type: Ship. MMSI: 247257900.

Date/timePositionNaut miles runAvg speedWind from/ knotsBaromVisibWave heightAir tempDewpointWater temp
2015-Apr-26 22:23N 42°08' E 006°56'6112.5
2015-Apr-26 17:29N 42°56' E 006°06'1111.6
2015-Apr-26 16:33N 43°05' E 005°57'3 2.7
2015-Apr-26 15:32N 43°06' E 005°54'0 0.0
2015-Apr-26 14:32N 43°06' E 005°54'0 0.0
2015-Apr-26 13:32N 43°06' E 005°54'0 0.0
2015-Apr-26 12:32N 43°06' E 005°54'0 0.0
2015-Apr-26 11:32N 43°06' E 005°54'0 0.0
2015-Apr-26 10:31N 43°06' E 005°54'0 0.0
2015-Apr-26 09:32N 43°06' E 005°54'0 0.0
2015-Apr-26 08:32N 43°06' E 005°54'0 0.0
2015-Apr-26 07:32N 43°06' E 005°54'0 0.0
2015-Apr-26 06:32N 43°06' E 005°54'0 0.0
2015-Apr-26 05:32N 43°06' E 005°54'5 5.5
2015-Apr-26 04:32N 43°03' E 005°60'1211.8
2015-Apr-26 03:33N 42°56' E 006°12'2813.5
2015-Apr-26 01:31N 42°57' E 006°50'1813.0
2015-Apr-26 00:08N 42°58' E 007°14'813.1
2015-Apr-25 23:30N 42°58' E 007°26'1213.1
2015-Apr-25 22:33N 42°59' E 007°43'7712.4
2015-Apr-25 16:22N 44°07' E 008°31'1012.0
2015-Apr-25 15:33N 44°17' E 008°33'3 2.9
2015-Apr-25 14:31N 44°19' E 008°29'0 0.0
2015-Apr-25 13:31N 44°19' E 008°29'0 0.0
2015-Apr-25 12:31N 44°19' E 008°29'0 0.0
2015-Apr-25 11:31N 44°19' E 008°29'0 0.0
2015-Apr-25 10:31N 44°19' E 008°29'0 0.0
2015-Apr-25 09:31N 44°19' E 008°29'0 0.0
2015-Apr-25 08:28N 44°19' E 008°29'0 0.0
2015-Apr-25 07:31N 44°19' E 008°29'0 0.0
2015-Apr-25 06:33N 44°19' E 008°29'4 3.5
2015-Apr-25 05:33N 44°17' E 008°34'1111.1
2015-Apr-25 04:33N 44°08' E 008°42'1212.2
2015-Apr-25 03:33N 43°58' E 008°33'1111.4
2015-Apr-25 02:33N 43°48' E 008°26'1313.4
2015-Apr-25 01:33N 43°45' E 008°44'1313.2
2015-Apr-25 00:33N 43°42' E 009°02'1312.9
2015-Apr-24 23:33N 43°40' E 009°20'1312.9
2015-Apr-24 22:33N 43°38' E 009°37'1312.9
2015-Apr-24 21:33N 43°32' E 009°53'1312.8
2015-Apr-24 20:33N 43°31' E 010°11'5 5.1
2015-Apr-24 19:31N 43°33' E 010°18'0 0.0
2015-Apr-24 18:31N 43°33' E 010°18'0 0.0
2015-Apr-24 17:31N 43°33' E 010°18'0 0.0
2015-Apr-24 16:31N 43°33' E 010°18'0 0.0
2015-Apr-24 15:31N 43°33' E 010°18'0 0.0
2015-Apr-24 14:31N 43°33' E 010°18'0 0.0
2015-Apr-24 13:31N 43°33' E 010°18'0 0.0
2015-Apr-24 12:31N 43°33' E 010°18'0 0.0
2015-Apr-24 11:31N 43°33' E 010°18'0 0.0
2015-Apr-24 10:31N 43°33' E 010°18'0 0.0
2015-Apr-24 09:31N 43°33' E 010°18'0 0.0
2015-Apr-24 08:31N 43°33' E 010°18'0 0.0
2015-Apr-24 07:31N 43°33' E 010°18'0 0.0
2015-Apr-24 06:31N 43°33' E 010°18'0 0.2
2015-Apr-24 05:33N 43°33' E 010°18'8 8.5
2015-Apr-24 04:33N 43°27' E 010°10'1313.1
2015-Apr-24 03:33N 43°19' E 009°56'1313.5
2015-Apr-24 02:33N 43°15' E 009°38'1413.1
2015-Apr-24 01:29N 43°14' E 009°19'1212.4
2015-Apr-24 00:33N 43°08' E 009°05'1313.5
2015-Apr-23 23:33N 43°02' E 008°49'1413.6
2015-Apr-23 22:33N 42°52' E 008°37'1413.9
2015-Apr-23 21:32N 42°40' E 008°25'1413.5
2015-Apr-23 20:28N 42°29' E 008°14'51 2.7
2015-Apr-23 01:15N 41°44' E 007°41'1114.1
2015-Apr-23 00:26N 41°44' E 007°26'3013.2
2015-Apr-22 22:08N 42°06' E 006°58'1113.8
2015-Apr-22 21:20N 42°15' E 006°49'1613.5
2015-Apr-22 20:08N 42°28' E 006°36'813.6
2015-Apr-22 19:33N 42°34' E 006°30'1613.8
2015-Apr-22 18:23N 42°47' E 006°17'1513.2
2015-Apr-22 17:13N 42°59' E 006°03'812.1
2015-Apr-22 16:33N 43°05' E 005°57'3 2.5
2015-Apr-22 15:31N 43°06' E 005°54'0 0.0
2015-Apr-22 14:31N 43°06' E 005°54'0 0.0
2015-Apr-22 13:31N 43°06' E 005°54'0 0.0
2015-Apr-22 12:31N 43°06' E 005°54'0 0.0
2015-Apr-22 11:31N 43°06' E 005°54'0 0.0
2015-Apr-22 10:31N 43°06' E 005°54'0 0.0
2015-Apr-22 09:31N 43°06' E 005°54'0 0.0
2015-Apr-22 08:31N 43°06' E 005°54'0 0.0
2015-Apr-22 07:31N 43°06' E 005°54'0 0.0
2015-Apr-22 06:31N 43°06' E 005°54'0 0.0
2015-Apr-22 05:33N 43°06' E 005°54'7 7.4
2015-Apr-22 04:33N 43°01' E 006°01'1312.4
2015-Apr-22 03:28N 42°57' E 006°18'1313.8
2015-Apr-22 02:32N 42°57' E 006°35'1414.0
2015-Apr-22 01:32N 42°58' E 006°55'1313.6
2015-Apr-22 00:33N 42°59' E 007°13'1313.1
2015-Apr-21 23:33N 42°59' E 007°31'1313.1
2015-Apr-21 22:33N 42°59' E 007°49'1312.4
2015-Apr-21 21:28N 43°05' E 008°05'1212.7
2015-Apr-21 20:33N 43°16' E 008°10'1313.0
2015-Apr-21 19:34N 43°29' E 008°15'1313.2
2015-Apr-21 18:33N 43°41' E 008°20'1313.4
2015-Apr-21 17:34N 43°54' E 008°26'1513.5
2015-Apr-21 16:27N 44°09' E 008°32'1011.5
2015-Apr-21 15:33N 44°19' E 008°31'1 1.0
2015-Apr-21 14:31N 44°19' E 008°29'0 0.0
2015-Apr-21 13:31N 44°19' E 008°29'0 0.0
2015-Apr-21 12:16N 44°19' E 008°29'0 0.0
2015-Apr-21 11:28N 44°19' E 008°29'0 0.0
2015-Apr-21 10:10N 44°19' E 008°29'0 0.0
2015-Apr-21 09:28N 44°19' E 008°29'0 0.0
2015-Apr-21 08:31N 44°19' E 008°29'0 0.0
2015-Apr-21 07:31N 44°19' E 008°29'0 0.0
2015-Apr-21 06:31N 44°19' E 008°29'6 6.2
2015-Apr-21 05:33N 44°14' E 008°34'1212.2
2015-Apr-21 04:33N 44°02' E 008°37'1312.4
2015-Apr-21 03:33N 43°52' E 008°27'9 9.3
2015-Apr-21 02:33N 43°42' E 008°28'1313.4
2015-Apr-21 01:33N 43°34' E 008°43'1312.6
2015-Apr-21 00:33N 43°34' E 009°00'1313.0
2015-Apr-20 23:33N 43°35' E 009°18'1312.9
2015-Apr-20 22:33N 43°35' E 009°36'1313.0
2015-Apr-20 21:33N 43°33' E 009°54'1312.9
2015-Apr-20 20:34N 43°31' E 010°11'5 4.8
2015-Apr-20 19:31N 43°33' E 010°18'0 0.0
2015-Apr-20 18:31N 43°33' E 010°18'0 0.0
2015-Apr-20 17:31N 43°33' E 010°18'0 0.0
2015-Apr-20 16:31N 43°33' E 010°18'0 0.0
2015-Apr-20 15:28N 43°33' E 010°18'0 0.0
2015-Apr-20 14:31N 43°33' E 010°18'0 0.0
2015-Apr-20 13:31N 43°33' E 010°18'0 0.0
2015-Apr-20 12:33N 43°33' E 010°18'0 0.0
2015-Apr-20 11:33N 43°33' E 010°18'0 0.0
2015-Apr-20 10:33N 43°33' E 010°18'0 0.0
2015-Apr-20 09:33N 43°33' E 010°18'0 0.0
2015-Apr-20 08:33N 43°33' E 010°18'0 0.0
2015-Apr-20 07:33N 43°33' E 010°18'0 0.0
2015-Apr-20 06:33N 43°33' E 010°18'6 6.1
2015-Apr-20 05:33N 43°28' E 010°12'1312.9
2015-Apr-20 04:33N 43°16' E 010°07'1313.0
2015-Apr-20 03:33N 43°04' E 010°02'1313.0
2015-Apr-20 02:33N 42°51' E 009°57'11711.7
2015-Apr-19 16:31N 40°55' E 009°34'2 2.1
2015-Apr-19 15:28N 40°55' E 009°31'0 0.0
2015-Apr-19 14:31N 40°55' E 009°31'0 0.0
2015-Apr-19 13:32N 40°55' E 009°31'0 0.0
2015-Apr-19 12:31N 40°55' E 009°31'0 0.0
2015-Apr-19 11:22N 40°55' E 009°31'0 0.0
2015-Apr-19 10:25N 40°55' E 009°31'0 0.0
2015-Apr-19 09:25N 40°55' E 009°31'0 0.0
2015-Apr-19 08:22N 40°55' E 009°31'0 0.0
2015-Apr-19 07:25N 40°55' E 009°31'0 0.0
2015-Apr-19 06:28N 40°55' E 009°31'0 0.0
2015-Apr-19 05:32N 40°55' E 009°31'135 4.4
2015-Apr-17 22:33N 41°53' E 006°49'1514.6
2015-Apr-17 21:30N 42°08' E 006°46'1313.8
2015-Apr-17 20:33N 42°21' E 006°43'1815.2
2015-Apr-17 19:23N 42°35' E 006°28'2713.9
2015-Apr-17 17:25N 42°57' E 006°05'1112.5
2015-Apr-17 16:33N 43°05' E 005°56'2 1.8
2015-Apr-17 15:31N 43°06' E 005°54'0 0.0
2015-Apr-17 14:31N 43°06' E 005°54'0 0.0
2015-Apr-17 13:31N 43°06' E 005°54'0 0.0
2015-Apr-17 12:31N 43°06' E 005°54'0 0.0
2015-Apr-17 11:31N 43°06' E 005°54'0 0.0
2015-Apr-17 10:31N 43°06' E 005°54'0 0.0
2015-Apr-17 09:31N 43°06' E 005°54'0 0.0
2015-Apr-17 08:31N 43°06' E 005°54'0 0.0
2015-Apr-17 07:31N 43°06' E 005°54'0 0.0
2015-Apr-17 06:31N 43°06' E 005°54'0 0.0
2015-Apr-17 05:34N 43°06' E 005°54'8 7.8
2015-Apr-17 04:31N 43°01' E 006°02'1111.8
2015-Apr-17 03:33N 42°55' E 006°16'1414.6
2015-Apr-17 02:33N 42°55' E 006°35'1413.9
2015-Apr-17 01:33N 42°53' E 006°54'1313.4
2015-Apr-17 00:33N 42°48' E 007°11'1010.3
2015-Apr-16 23:33N 42°56' E 007°21'1413.6
2015-Apr-16 22:33N 43°09' E 007°21'  

Dump ship's entire track history